Wilberton, Illinois
Current Conditions -  °F | °C
As of 4:15 AM on Sunday 26 Oct 2014 (Local Time) from KSLO Reporting Station
Clear Clear  
Wind Chill: 57°   Ceiling: Unl
Heat Index: 57°   Visibility: 7mi
Dew Point: 42°   Wind: 0mph
Humidity: 57%   Direction: NA
Pressure: 30.02"   Gusts: NA
Location:  38.8463°N, 89.0894°W
Report Text: KSLO 260915Z AUTO 00000KT 7SM CLR 14/06 A3002 RMK AO2 T01400057
Loading
Personal Weather Stations






























Interactive Weather Map
Tropical Storm Tracking
New forecast layout! Learn more

10-Day Weather Forecast

Advertisements
Track Severe Weather on mobile